Nearby METAR Reports

 

KMTN - Baltimore/Martin, Maryland, USA
Distance from station: SSE 8mi, 13km
Updated: Thu, 29-Jan-2015 6:50am EST
Clear
Clear
 Wind from calm
Wind: Calm
Clouds: Clear
Visibility: 10 miles , 16 km
2015/01/29 11:50 KMTN 291150Z 00000KT 10SM SKC MO7/M11 A3036
KDMH - Baltimore/Dwntwn, Maryland, USA
Distance from station: SW 12mi, 19km
Updated: Thu, 29-Jan-2015 6:54am EST

 
Temperature: 25°F , -4°C
Dew Point: 9°F , -13°C
Humidity: 50%
Barometer: 30.34 inHg , 1027.4 hPa
2015/01/29 11:54 KDMH 291154Z AUTO M04/M13 A3034 RMK AO1 SLP275 T10391133 11022 21044 53005
 
KBWI - Balto/Wash Intl, Maryland, USA
Distance from station: SSW 20mi, 33km
Updated: Thu, 29-Jan-2015 6:54am EST
Few Clouds
Few Clouds
 Wind from calm
Wind: Calm
Temperature: 18°F , -8°C
Dew Point: 10°F , -12°C
Humidity: 73%
Barometer: 30.33 inHg , 1027.1 hPa
Clouds: Few Clouds
Visibility: 10 miles , 16 km
Cloud details: Few Clouds 25000 ft
2015/01/29 11:54 KBWI 291154Z 00000KT 10SM FEW250 M08/M12 A3033 RMK AO2 SLP274 T10781122 11050 21083 53002
KDMW - Carroll Cnty, Maryland, USA
Distance from station: WNW 30mi, 48km
Updated: Thu, 29-Jan-2015 7:05am EST
Partly cloudy
Partly cloudy
 Wind from calm
Wind: Calm
Temperature: 16°F , -9°C
Dew Point: 7°F , -14°C
Humidity: 67%
Barometer: 30.28 inHg , 1025.4 hPa
Clouds: Partly cloudy
Visibility: 10 miles , 16 km
Cloud details: Partly cloudy 9000 ft
2015/01/29 12:05 KDMW 291205Z AUTO 00000KT 10SM SCT090 M09/M14 A3028 RMK AO2
 
KNAK - Annapolis/Naval, Maryland, USA
Distance from station: S 30mi, 48km
Updated: Thu, 29-Jan-2015 6:54am EST
Clear
Clear
 Wind from calm
Wind: Calm
Temperature: 21°F , -6°C
Dew Point: 12°F , -11°C
Humidity: 68%
Barometer: 30.35 inHg , 1027.8 hPa
Clouds: Clear
Visibility: 10 miles , 16 km
2015/01/29 11:54 KNAK 291154Z AUTO 00000KT 10SM CLR M06/M11 A3035 RMK AO2 SLP278 T10561111 11022 21056 53004
KW29 - Stevensville, Maryland, USA
Distance from station: SSE 31mi, 50km
Updated: Thu, 29-Jan-2015 7:06am EST

 Wind from calm
Wind: Calm
Temperature: 28°F , -2°C
Dew Point: 14°F , -10°C
Humidity: 55%
Barometer: 30.35 inHg , 1027.8 hPa
Visibility: 10 miles , 16 km
2015/01/29 12:06 KW29 291206Z AUTO 00000KT 10SM M02/M10 A3035 RMK AO1
 
KCGS - College Park, Maryland, USA
Distance from station: SW 38mi, 61km
Updated: Thu, 29-Jan-2015 7:05am EST
Clear
Clear
 Wind from calm
Wind: Calm
Temperature: 19°F , -7°C
Dew Point: 14°F , -10°C
Humidity: 79%
Barometer: 30.33 inHg , 1027.1 hPa
Clouds: Clear
Visibility: 10 miles , 16 km
2015/01/29 12:05 KCGS 291205Z AUTO 00000KT 10SM CLR M07/M10 A3033 RMK AO1
KGAI - Gaithersburg, Maryland, USA
Distance from station: WSW 40mi, 65km
Updated: Thu, 29-Jan-2015 6:55am EST
Clear
Clear
 Wind from calm
Wind: Calm
Temperature: 18°F , -8°C
Dew Point: 7°F , -14°C
Humidity: 62%
Barometer: 30.34 inHg , 1027.4 hPa
Clouds: Clear
Visibility: 10 miles , 16 km
2015/01/29 11:55 KGAI 291155Z 00000KT 10SM CLR M08/M14 A3034 RMK AO1 11080 21110 57003
 
KTHV - York, Pennsylvania, USA
Distance from station: NNW 40mi, 65km
Updated: Thu, 29-Jan-2015 6:53am EST
Clear
Clear
 Wind from calm
Wind: Calm
Temperature: 5°F , -15°C
Dew Point: 1°F , -17°C
Humidity: 85%
Barometer: 30.30 inHg , 1026.1 hPa
Clouds: Clear
Visibility: 10 miles , 16 km
2015/01/29 11:53 KTHV 291153Z AUTO 00000KT 10SM CLR M15/M17 A3030 RMK AO2 SLP275 T11501172 11128 21167 55002
KFDK - Frederick, Maryland, USA
Distance from station: W 47mi, 75km
Updated: Thu, 29-Jan-2015 6:45am EST
Clear
Clear
 Wind from calm
Wind: Calm
Temperature: 14°F , -10°C
Dew Point: 9°F , -13°C
Humidity: 79%
Barometer: 30.36 inHg , 1028.1 hPa
Clouds: Clear
Visibility: 10 miles , 16 km
2015/01/29 11:45 KFDK 291145Z 00000KT 10SM SKC M10/M13 A3036
 
KESN - Easton/Newnam, Maryland, USA
Distance from station: SSE 48mi, 78km
Updated: Thu, 29-Jan-2015 5:53am EST
NOT Current
Clear
Clear
 Wind from calm
Wind: Calm
Temperature: 21°F , -6°C
Dew Point: 16°F , -9°C
Humidity: 80%
Barometer: 30.37 inHg , 1028.4 hPa
Clouds: Clear
Visibility: 10 miles , 16 km
2015/01/29 10:53 KESN 291053Z 00000KT 10SM SKC M06/M09 A3037
KDCA - Washington/Natl, Washington D.c., USA
Distance from station: SW 49mi, 79km
Updated: Thu, 29-Jan-2015 6:52am EST
Partly cloudy
Partly cloudy
 Wind from calm
Wind: Calm
Temperature: 28°F , -2°C
Dew Point: 12°F , -11°C
Humidity: 51%
Barometer: 30.35 inHg , 1027.8 hPa
Clouds: Partly cloudy
Visibility: 10 miles , 16 km
Cloud details: Partly cloudy 25000 ft
2015/01/29 11:52 KDCA 291152Z 00000KT 10SM SCT250 M02/M11 A3035 RMK AO2 SLP275 T10221106 11017 21033 53001
 
KLNS - Lancaster, Pennsylvania, USA
Distance from station: N 49mi, 79km
Updated: Thu, 29-Jan-2015 6:53am EST
Clear
Clear
 Wind from calm
Wind: Calm
Temperature: 9°F , -13°C
Dew Point: 3°F , -16°C
Humidity: 78%
Barometer: 30.31 inHg , 1026.4 hPa
Clouds: Clear
Visibility: 8 miles , 13 km
2015/01/29 11:53 KLNS 291153Z 00000KT 8SM CLR M13/M16 A3031 RMK AO2 SLP272 T11331161 11094 21139 53005
KILG - Wilmington, Delaware, USA
Distance from station: ENE 50mi, 81km
Updated: Thu, 29-Jan-2015 6:51am EST
Clear
Clear
 Wind from calm
Wind: Calm
Temperature: 18°F , -8°C
Dew Point: 9°F , -13°C
Humidity: 68%
Barometer: 30.34 inHg , 1027.4 hPa
Clouds: Clear
Visibility: 10 miles , 16 km
2015/01/29 11:51 KILG 291151Z 00000KT 10SM CLR M08/M13 A3034 RMK AO2 SLP276 T10831128 11050 21100 53006